METAR Data
IDs: Format: Raw Decoded Include TAF

Data at: 0840 UTC 03 Aug 2021

ESMX 030820Z AUTO VRB03KT 9999 OVC051/// 15/11 Q1011